sensor_id;sensor_type;location;lat;lon;timestamp;P1;durP1;ratioP1;P2;durP2;ratioP2
83688;SDS011;74527;43.224;0.108;2024-01-11T00:00:14;19.08;;;12.38;;
83688;SDS011;74527;43.224;0.108;2024-01-11T00:02:40;20.13;;;13.07;;
83688;SDS011;74527;43.224;0.108;2024-01-11T00:05:06;23.58;;;14.77;;
83688;SDS011;74527;43.224;0.108;2024-01-11T00:07:32;24.20;;;16.40;;
83688;SDS011;74527;43.224;0.108;2024-01-11T00:10:00;24.80;;;15.95;;
83688;SDS011;74527;43.224;0.108;2024-01-11T00:12:26;29.30;;;17.08;;
83688;SDS011;74527;43.224;0.108;2024-01-11T00:14:52;26.13;;;17.00;;
83688;SDS011;74527;43.224;0.108;2024-01-11T00:17:18;26.73;;;17.17;;
83688;SDS011;74527;43.224;0.108;2024-01-11T00:19:44;28.48;;;16.65;;
83688;SDS011;74527;43.224;0.108;2024-01-11T00:22:10;28.73;;;16.63;;
83688;SDS011;74527;43.224;0.108;2024-01-11T00:24:36;28.75;;;17.38;;
83688;SDS011;74527;43.224;0.108;2024-01-11T00:27:02;32.30;;;18.83;;
83688;SDS011;74527;43.224;0.108;2024-01-11T00:29:28;35.85;;;19.83;;
83688;SDS011;74527;43.224;0.108;2024-01-11T00:31:54;26.23;;;15.55;;
83688;SDS011;74527;43.224;0.108;2024-01-11T00:34:21;23.88;;;13.93;;
83688;SDS011;74527;43.224;0.108;2024-01-11T00:36:47;21.17;;;14.00;;
83688;SDS011;74527;43.224;0.108;2024-01-11T00:39:13;16.33;;;10.88;;
83688;SDS011;74527;43.224;0.108;2024-01-11T00:41:40;17.10;;;11.50;;
83688;SDS011;74527;43.224;0.108;2024-01-11T00:44:06;15.52;;;10.57;;
83688;SDS011;74527;43.224;0.108;2024-01-11T00:46:32;19.70;;;10.85;;
83688;SDS011;74527;43.224;0.108;2024-01-11T00:48:58;17.10;;;10.18;;
83688;SDS011;74527;43.224;0.108;2024-01-11T00:51:24;13.93;;;8.75;;
83688;SDS011;74527;43.224;0.108;2024-01-11T00:53:50;14.48;;;9.43;;
83688;SDS011;74527;43.224;0.108;2024-01-11T00:56:17;15.55;;;8.63;;
83688;SDS011;74527;43.224;0.108;2024-01-11T00:58:43;15.85;;;9.70;;
83688;SDS011;74527;43.224;0.108;2024-01-11T01:01:09;21.63;;;12.73;;
83688;SDS011;74527;43.224;0.108;2024-01-11T01:03:35;17.98;;;12.52;;
83688;SDS011;74527;43.224;0.108;2024-01-11T01:06:02;18.05;;;12.63;;
83688;SDS011;74527;43.224;0.108;2024-01-11T01:08:28;23.38;;;13.85;;
83688;SDS011;74527;43.224;0.108;2024-01-11T01:10:54;28.25;;;13.93;;
83688;SDS011;74527;43.224;0.108;2024-01-11T01:13:20;25.50;;;14.02;;
83688;SDS011;74527;43.224;0.108;2024-01-11T01:15:46;38.22;;;18.75;;
83688;SDS011;74527;43.224;0.108;2024-01-11T01:18:13;37.22;;;19.13;;
83688;SDS011;74527;43.224;0.108;2024-01-11T01:20:39;39.15;;;20.02;;
83688;SDS011;74527;43.224;0.108;2024-01-11T01:23:05;58.30;;;21.40;;
83688;SDS011;74527;43.224;0.108;2024-01-11T01:25:31;216.45;;;24.48;;
83688;SDS011;74527;43.224;0.108;2024-01-11T01:27:57;99.88;;;19.73;;
83688;SDS011;74527;43.224;0.108;2024-01-11T01:30:25;88.88;;;17.30;;
83688;SDS011;74527;43.224;0.108;2024-01-11T01:32:51;129.55;;;17.58;;
83688;SDS011;74527;43.224;0.108;2024-01-11T01:35:17;60.00;;;14.07;;
83688;SDS011;74527;43.224;0.108;2024-01-11T01:37:43;44.25;;;13.65;;
83688;SDS011;74527;43.224;0.108;2024-01-11T01:40:10;66.68;;;13.02;;
83688;SDS011;74527;43.224;0.108;2024-01-11T01:42:40;40.10;;;14.82;;
83688;SDS011;74527;43.224;0.108;2024-01-11T01:45:06;32.65;;;11.82;;
83688;SDS011;74527;43.224;0.108;2024-01-11T01:47:32;34.55;;;11.77;;
83688;SDS011;74527;43.224;0.108;2024-01-11T01:49:58;19.02;;;11.30;;
83688;SDS011;74527;43.224;0.108;2024-01-11T01:52:25;20.70;;;11.32;;
83688;SDS011;74527;43.224;0.108;2024-01-11T01:54:51;25.45;;;11.70;;
83688;SDS011;74527;43.224;0.108;2024-01-11T01:57:18;34.97;;;12.55;;
83688;SDS011;74527;43.224;0.108;2024-01-11T01:59:44;32.50;;;13.93;;
83688;SDS011;74527;43.224;0.108;2024-01-11T02:02:11;27.73;;;13.13;;
83688;SDS011;74527;43.224;0.108;2024-01-11T02:04:37;19.75;;;11.65;;
83688;SDS011;74527;43.224;0.108;2024-01-11T02:07:04;19.88;;;12.07;;
83688;SDS011;74527;43.224;0.108;2024-01-11T02:09:30;23.35;;;12.90;;
83688;SDS011;74527;43.224;0.108;2024-01-11T02:11:56;27.17;;;12.00;;
83688;SDS011;74527;43.224;0.108;2024-01-11T02:14:23;22.30;;;12.38;;
83688;SDS011;74527;43.224;0.108;2024-01-11T02:16:49;23.75;;;12.65;;
83688;SDS011;74527;43.224;0.108;2024-01-11T02:19:15;22.25;;;12.75;;
83688;SDS011;74527;43.224;0.108;2024-01-11T02:21:42;19.05;;;11.38;;
83688;SDS011;74527;43.224;0.108;2024-01-11T02:24:08;20.35;;;11.60;;
83688;SDS011;74527;43.224;0.108;2024-01-11T02:26:35;19.33;;;11.57;;
83688;SDS011;74527;43.224;0.108;2024-01-11T02:29:01;17.80;;;11.25;;
83688;SDS011;74527;43.224;0.108;2024-01-11T02:31:28;17.38;;;11.23;;
83688;SDS011;74527;43.224;0.108;2024-01-11T02:33:54;17.90;;;11.15;;
83688;SDS011;74527;43.224;0.108;2024-01-11T02:36:21;21.48;;;11.95;;
83688;SDS011;74527;43.224;0.108;2024-01-11T02:38:47;18.88;;;11.40;;
83688;SDS011;74527;43.224;0.108;2024-01-11T02:41:15;20.05;;;11.82;;
83688;SDS011;74527;43.224;0.108;2024-01-11T02:43:48;19.60;;;11.13;;
83688;SDS011;74527;43.224;0.108;2024-01-11T02:46:14;18.75;;;10.82;;
83688;SDS011;74527;43.224;0.108;2024-01-11T02:48:41;17.13;;;9.48;;
83688;SDS011;74527;43.224;0.108;2024-01-11T02:51:07;20.23;;;12.38;;
83688;SDS011;74527;43.224;0.108;2024-01-11T02:53:33;20.30;;;12.23;;
83688;SDS011;74527;43.224;0.108;2024-01-11T02:56:02;17.13;;;10.38;;
83688;SDS011;74527;43.224;0.108;2024-01-11T02:58:28;17.52;;;11.38;;
83688;SDS011;74527;43.224;0.108;2024-01-11T03:00:54;18.25;;;11.52;;
83688;SDS011;74527;43.224;0.108;2024-01-11T03:03:20;16.30;;;11.15;;
83688;SDS011;74527;43.224;0.108;2024-01-11T03:05:46;17.02;;;11.52;;
83688;SDS011;74527;43.224;0.108;2024-01-11T03:08:12;14.80;;;10.48;;
83688;SDS011;74527;43.224;0.108;2024-01-11T03:10:39;18.77;;;11.95;;
83688;SDS011;74527;43.224;0.108;2024-01-11T03:13:05;15.60;;;11.27;;
83688;SDS011;74527;43.224;0.108;2024-01-11T03:15:31;14.52;;;9.60;;
83688;SDS011;74527;43.224;0.108;2024-01-11T03:17:57;17.90;;;11.30;;
83688;SDS011;74527;43.224;0.108;2024-01-11T03:20:23;16.25;;;10.60;;
83688;SDS011;74527;43.224;0.108;2024-01-11T03:22:53;13.10;;;9.90;;
83688;SDS011;74527;43.224;0.108;2024-01-11T03:25:19;14.93;;;10.18;;
83688;SDS011;74527;43.224;0.108;2024-01-11T03:27:45;15.25;;;9.45;;
83688;SDS011;74527;43.224;0.108;2024-01-11T03:30:11;13.68;;;9.60;;
83688;SDS011;74527;43.224;0.108;2024-01-11T03:32:37;16.35;;;10.65;;
83688;SDS011;74527;43.224;0.108;2024-01-11T03:35:05;19.95;;;11.57;;
83688;SDS011;74527;43.224;0.108;2024-01-11T03:37:31;18.77;;;11.80;;
83688;SDS011;74527;43.224;0.108;2024-01-11T03:39:57;15.82;;;10.15;;
83688;SDS011;74527;43.224;0.108;2024-01-11T03:42:23;15.52;;;10.57;;
83688;SDS011;74527;43.224;0.108;2024-01-11T03:44:49;16.58;;;11.50;;
83688;SDS011;74527;43.224;0.108;2024-01-11T03:47:15;16.50;;;11.15;;
83688;SDS011;74527;43.224;0.108;2024-01-11T03:49:41;20.15;;;11.20;;
83688;SDS011;74527;43.224;0.108;2024-01-11T03:52:07;15.40;;;10.38;;
83688;SDS011;74527;43.224;0.108;2024-01-11T03:54:33;18.13;;;11.30;;
83688;SDS011;74527;43.224;0.108;2024-01-11T03:56:59;18.73;;;11.20;;
83688;SDS011;74527;43.224;0.108;2024-01-11T03:59:25;16.40;;;10.90;;
83688;SDS011;74527;43.224;0.108;2024-01-11T04:01:52;17.70;;;11.98;;
83688;SDS011;74527;43.224;0.108;2024-01-11T04:04:18;16.95;;;11.77;;
83688;SDS011;74527;43.224;0.108;2024-01-11T04:06:45;17.50;;;12.20;;
83688;SDS011;74527;43.224;0.108;2024-01-11T04:09:11;17.45;;;11.20;;
83688;SDS011;74527;43.224;0.108;2024-01-11T04:11:37;17.48;;;12.13;;
83688;SDS011;74527;43.224;0.108;2024-01-11T04:14:03;16.38;;;12.45;;
83688;SDS011;74527;43.224;0.108;2024-01-11T04:16:29;18.77;;;12.00;;
83688;SDS011;74527;43.224;0.108;2024-01-11T04:18:55;17.55;;;11.50;;
83688;SDS011;74527;43.224;0.108;2024-01-11T04:23:47;18.75;;;12.60;;
83688;SDS011;74527;43.224;0.108;2024-01-11T04:26:13;20.88;;;13.07;;
83688;SDS011;74527;43.224;0.108;2024-01-11T04:28:40;22.33;;;14.68;;
83688;SDS011;74527;43.224;0.108;2024-01-11T04:31:08;22.00;;;13.10;;
83688;SDS011;74527;43.224;0.108;2024-01-11T04:33:34;21.58;;;14.73;;
83688;SDS011;74527;43.224;0.108;2024-01-11T04:36:00;20.50;;;13.15;;
83688;SDS011;74527;43.224;0.108;2024-01-11T04:38:26;21.90;;;14.25;;
83688;SDS011;74527;43.224;0.108;2024-01-11T04:40:52;19.85;;;14.10;;
83688;SDS011;74527;43.224;0.108;2024-01-11T04:43:18;19.27;;;13.32;;
83688;SDS011;74527;43.224;0.108;2024-01-11T04:45:44;18.73;;;12.82;;
83688;SDS011;74527;43.224;0.108;2024-01-11T04:48:10;20.55;;;13.50;;
83688;SDS011;74527;43.224;0.108;2024-01-11T04:50:36;17.52;;;12.77;;
83688;SDS011;74527;43.224;0.108;2024-01-11T04:53:02;19.98;;;14.02;;
83688;SDS011;74527;43.224;0.108;2024-01-11T04:55:28;17.02;;;12.80;;
83688;SDS011;74527;43.224;0.108;2024-01-11T04:57:54;18.88;;;12.52;;
83688;SDS011;74527;43.224;0.108;2024-01-11T05:00:20;19.90;;;13.43;;
83688;SDS011;74527;43.224;0.108;2024-01-11T05:02:46;19.00;;;12.25;;
83688;SDS011;74527;43.224;0.108;2024-01-11T05:05:12;19.05;;;13.38;;
83688;SDS011;74527;43.224;0.108;2024-01-11T05:07:38;19.20;;;13.63;;
83688;SDS011;74527;43.224;0.108;2024-01-11T05:10:04;22.73;;;14.63;;
83688;SDS011;74527;43.224;0.108;2024-01-11T05:12:31;16.50;;;11.77;;
83688;SDS011;74527;43.224;0.108;2024-01-11T05:14:57;19.65;;;13.57;;
83688;SDS011;74527;43.224;0.108;2024-01-11T05:17:23;20.00;;;13.77;;
83688;SDS011;74527;43.224;0.108;2024-01-11T05:19:49;22.95;;;14.27;;
83688;SDS011;74527;43.224;0.108;2024-01-11T05:22:15;28.38;;;17.33;;
83688;SDS011;74527;43.224;0.108;2024-01-11T05:24:41;20.70;;;13.73;;
83688;SDS011;74527;43.224;0.108;2024-01-11T05:27:07;19.08;;;13.55;;
83688;SDS011;74527;43.224;0.108;2024-01-11T05:29:33;20.45;;;14.30;;
83688;SDS011;74527;43.224;0.108;2024-01-11T05:31:59;36.00;;;19.88;;
83688;SDS011;74527;43.224;0.108;2024-01-11T05:34:25;19.65;;;14.07;;
83688;SDS011;74527;43.224;0.108;2024-01-11T05:36:51;23.02;;;14.40;;
83688;SDS011;74527;43.224;0.108;2024-01-11T05:39:17;20.70;;;13.63;;
83688;SDS011;74527;43.224;0.108;2024-01-11T05:41:43;22.83;;;14.25;;
83688;SDS011;74527;43.224;0.108;2024-01-11T05:44:10;24.25;;;14.38;;
83688;SDS011;74527;43.224;0.108;2024-01-11T05:46:36;20.98;;;13.85;;
83688;SDS011;74527;43.224;0.108;2024-01-11T05:49:02;19.27;;;13.75;;
83688;SDS011;74527;43.224;0.108;2024-01-11T05:51:28;20.60;;;14.00;;
83688;SDS011;74527;43.224;0.108;2024-01-11T05:53:54;24.17;;;15.05;;
83688;SDS011;74527;43.224;0.108;2024-01-11T05:56:20;33.60;;;21.25;;
83688;SDS011;74527;43.224;0.108;2024-01-11T05:58:46;28.77;;;19.98;;
83688;SDS011;74527;43.224;0.108;2024-01-11T06:01:12;30.70;;;18.90;;
83688;SDS011;74527;43.224;0.108;2024-01-11T06:03:38;31.85;;;18.33;;
83688;SDS011;74527;43.224;0.108;2024-01-11T06:06:04;31.70;;;18.45;;
83688;SDS011;74527;43.224;0.108;2024-01-11T06:08:31;26.15;;;18.50;;
83688;SDS011;74527;43.224;0.108;2024-01-11T06:10:57;32.70;;;20.63;;
83688;SDS011;74527;43.224;0.108;2024-01-11T06:13:23;28.17;;;18.95;;
83688;SDS011;74527;43.224;0.108;2024-01-11T06:15:49;34.10;;;22.80;;
83688;SDS011;74527;43.224;0.108;2024-01-11T06:18:15;42.95;;;26.35;;
83688;SDS011;74527;43.224;0.108;2024-01-11T06:20:41;32.97;;;21.40;;
83688;SDS011;74527;43.224;0.108;2024-01-11T06:23:07;32.25;;;18.70;;
83688;SDS011;74527;43.224;0.108;2024-01-11T06:25:33;24.98;;;15.93;;
83688;SDS011;74527;43.224;0.108;2024-01-11T06:27:59;25.92;;;15.75;;
83688;SDS011;74527;43.224;0.108;2024-01-11T06:30:25;27.70;;;16.95;;
83688;SDS011;74527;43.224;0.108;2024-01-11T06:32:54;25.45;;;16.05;;
83688;SDS011;74527;43.224;0.108;2024-01-11T06:35:20;26.10;;;15.40;;
83688;SDS011;74527;43.224;0.108;2024-01-11T06:37:46;24.35;;;13.95;;
83688;SDS011;74527;43.224;0.108;2024-01-11T06:40:12;27.25;;;17.63;;
83688;SDS011;74527;43.224;0.108;2024-01-11T06:42:38;24.08;;;15.88;;
83688;SDS011;74527;43.224;0.108;2024-01-11T06:45:04;23.23;;;15.68;;
83688;SDS011;74527;43.224;0.108;2024-01-11T06:47:30;83.63;;;51.78;;
83688;SDS011;74527;43.224;0.108;2024-01-11T06:49:56;53.47;;;29.02;;
83688;SDS011;74527;43.224;0.108;2024-01-11T06:52:22;39.03;;;21.35;;
83688;SDS011;74527;43.224;0.108;2024-01-11T06:54:48;36.50;;;21.30;;
83688;SDS011;74527;43.224;0.108;2024-01-11T06:57:14;81.10;;;38.42;;
83688;SDS011;74527;43.224;0.108;2024-01-11T06:59:40;54.20;;;26.75;;
83688;SDS011;74527;43.224;0.108;2024-01-11T07:02:06;47.08;;;22.38;;
83688;SDS011;74527;43.224;0.108;2024-01-11T07:04:32;45.05;;;26.30;;
83688;SDS011;74527;43.224;0.108;2024-01-11T07:06:59;52.72;;;27.70;;
83688;SDS011;74527;43.224;0.108;2024-01-11T07:09:25;54.38;;;29.50;;
83688;SDS011;74527;43.224;0.108;2024-01-11T07:11:52;56.60;;;30.33;;
83688;SDS011;74527;43.224;0.108;2024-01-11T07:14:18;34.00;;;20.15;;
83688;SDS011;74527;43.224;0.108;2024-01-11T07:16:44;45.83;;;24.77;;
83688;SDS011;74527;43.224;0.108;2024-01-11T07:19:10;36.60;;;21.50;;
83688;SDS011;74527;43.224;0.108;2024-01-11T07:21:36;40.22;;;22.77;;
83688;SDS011;74527;43.224;0.108;2024-01-11T07:24:02;39.08;;;22.63;;
83688;SDS011;74527;43.224;0.108;2024-01-11T07:26:29;40.33;;;22.52;;
83688;SDS011;74527;43.224;0.108;2024-01-11T07:28:55;52.88;;;30.10;;
83688;SDS011;74527;43.224;0.108;2024-01-11T07:31:21;42.67;;;23.67;;
83688;SDS011;74527;43.224;0.108;2024-01-11T07:33:47;39.10;;;22.80;;
83688;SDS011;74527;43.224;0.108;2024-01-11T07:36:13;40.30;;;21.88;;
83688;SDS011;74527;43.224;0.108;2024-01-11T07:38:39;34.78;;;19.05;;
83688;SDS011;74527;43.224;0.108;2024-01-11T07:41:05;33.55;;;21.52;;
83688;SDS011;74527;43.224;0.108;2024-01-11T07:43:31;31.02;;;19.33;;
83688;SDS011;74527;43.224;0.108;2024-01-11T07:48:26;29.50;;;19.05;;
83688;SDS011;74527;43.224;0.108;2024-01-11T07:50:52;29.15;;;18.70;;
83688;SDS011;74527;43.224;0.108;2024-01-11T07:53:18;46.85;;;26.63;;
83688;SDS011;74527;43.224;0.108;2024-01-11T07:55:44;48.35;;;29.40;;
83688;SDS011;74527;43.224;0.108;2024-01-11T07:58:12;49.70;;;30.67;;
83688;SDS011;74527;43.224;0.108;2024-01-11T08:00:40;45.05;;;26.10;;
83688;SDS011;74527;43.224;0.108;2024-01-11T08:03:06;39.75;;;24.55;;
83688;SDS011;74527;43.224;0.108;2024-01-11T08:05:33;50.78;;;31.05;;
83688;SDS011;74527;43.224;0.108;2024-01-11T08:07:59;65.40;;;33.28;;
83688;SDS011;74527;43.224;0.108;2024-01-11T08:10:28;37.60;;;21.20;;
83688;SDS011;74527;43.224;0.108;2024-01-11T08:12:55;37.10;;;23.15;;
83688;SDS011;74527;43.224;0.108;2024-01-11T08:15:21;86.10;;;36.38;;
83688;SDS011;74527;43.224;0.108;2024-01-11T08:17:47;73.72;;;31.17;;
83688;SDS011;74527;43.224;0.108;2024-01-11T08:20:14;58.67;;;24.88;;
83688;SDS011;74527;43.224;0.108;2024-01-11T08:22:43;32.67;;;18.50;;
83688;SDS011;74527;43.224;0.108;2024-01-11T08:25:11;40.97;;;21.92;;
83688;SDS011;74527;43.224;0.108;2024-01-11T08:27:38;24.48;;;16.52;;
83688;SDS011;74527;43.224;0.108;2024-01-11T08:30:04;35.03;;;17.45;;
83688;SDS011;74527;43.224;0.108;2024-01-11T08:32:30;38.15;;;19.77;;
83688;SDS011;74527;43.224;0.108;2024-01-11T08:34:56;60.00;;;26.55;;
83688;SDS011;74527;43.224;0.108;2024-01-11T08:37:23;62.85;;;34.85;;
83688;SDS011;74527;43.224;0.108;2024-01-11T08:39:50;51.88;;;29.50;;
83688;SDS011;74527;43.224;0.108;2024-01-11T08:42:16;61.53;;;34.42;;
83688;SDS011;74527;43.224;0.108;2024-01-11T08:44:42;67.88;;;33.05;;
83688;SDS011;74527;43.224;0.108;2024-01-11T08:47:08;91.75;;;47.15;;
83688;SDS011;74527;43.224;0.108;2024-01-11T08:49:38;35.92;;;21.63;;
83688;SDS011;74527;43.224;0.108;2024-01-11T08:52:05;31.27;;;19.58;;
83688;SDS011;74527;43.224;0.108;2024-01-11T08:54:31;30.05;;;17.73;;
83688;SDS011;74527;43.224;0.108;2024-01-11T08:57:00;25.83;;;16.60;;
83688;SDS011;74527;43.224;0.108;2024-01-11T08:59:26;21.75;;;14.57;;
83688;SDS011;74527;43.224;0.108;2024-01-11T09:01:52;35.00;;;19.42;;
83688;SDS011;74527;43.224;0.108;2024-01-11T09:04:18;31.08;;;19.92;;
83688;SDS011;74527;43.224;0.108;2024-01-11T09:06:45;25.55;;;15.55;;
83688;SDS011;74527;43.224;0.108;2024-01-11T09:09:11;29.08;;;16.55;;
83688;SDS011;74527;43.224;0.108;2024-01-11T09:11:38;27.33;;;15.85;;
83688;SDS011;74527;43.224;0.108;2024-01-11T09:14:06;21.90;;;14.15;;
83688;SDS011;74527;43.224;0.108;2024-01-11T09:16:32;25.23;;;16.05;;
83688;SDS011;74527;43.224;0.108;2024-01-11T09:18:58;23.40;;;15.82;;
83688;SDS011;74527;43.224;0.108;2024-01-11T09:21:25;27.77;;;16.52;;
83688;SDS011;74527;43.224;0.108;2024-01-11T09:23:51;27.23;;;16.98;;
83688;SDS011;74527;43.224;0.108;2024-01-11T09:26:17;24.92;;;15.50;;
83688;SDS011;74527;43.224;0.108;2024-01-11T09:28:44;22.35;;;15.02;;
83688;SDS011;74527;43.224;0.108;2024-01-11T09:31:10;21.30;;;14.90;;
83688;SDS011;74527;43.224;0.108;2024-01-11T09:33:37;20.13;;;14.35;;
83688;SDS011;74527;43.224;0.108;2024-01-11T09:36:04;17.38;;;12.18;;
83688;SDS011;74527;43.224;0.108;2024-01-11T09:38:30;20.17;;;13.85;;
83688;SDS011;74527;43.224;0.108;2024-01-11T09:40:59;20.98;;;14.35;;
83688;SDS011;74527;43.224;0.108;2024-01-11T09:43:27;21.23;;;14.25;;
83688;SDS011;74527;43.224;0.108;2024-01-11T09:45:53;21.13;;;13.48;;
83688;SDS011;74527;43.224;0.108;2024-01-11T09:48:19;24.80;;;13.63;;
83688;SDS011;74527;43.224;0.108;2024-01-11T09:50:47;23.15;;;13.27;;
83688;SDS011;74527;43.224;0.108;2024-01-11T09:53:14;21.10;;;12.93;;
83688;SDS011;74527;43.224;0.108;2024-01-11T09:55:42;16.98;;;10.82;;
83688;SDS011;74527;43.224;0.108;2024-01-11T09:58:08;18.27;;;12.70;;
83688;SDS011;74527;43.224;0.108;2024-01-11T10:00:35;17.52;;;11.68;;
83688;SDS011;74527;43.224;0.108;2024-01-11T10:03:01;24.95;;;14.82;;
83688;SDS011;74527;43.224;0.108;2024-01-11T10:05:27;23.52;;;14.35;;
83688;SDS011;74527;43.224;0.108;2024-01-11T10:07:54;23.15;;;13.85;;
83688;SDS011;74527;43.224;0.108;2024-01-11T10:10:20;19.30;;;12.65;;
83688;SDS011;74527;43.224;0.108;2024-01-11T10:12:47;18.63;;;11.93;;
83688;SDS011;74527;43.224;0.108;2024-01-11T10:15:14;18.73;;;11.52;;
83688;SDS011;74527;43.224;0.108;2024-01-11T10:17:43;16.42;;;10.90;;
83688;SDS011;74527;43.224;0.108;2024-01-11T10:20:12;18.35;;;11.05;;
83688;SDS011;74527;43.224;0.108;2024-01-11T10:22:42;16.67;;;11.20;;
83688;SDS011;74527;43.224;0.108;2024-01-11T10:25:15;17.75;;;12.23;;
83688;SDS011;74527;43.224;0.108;2024-01-11T10:27:41;19.00;;;12.98;;
83688;SDS011;74527;43.224;0.108;2024-01-11T10:30:08;18.58;;;13.13;;
83688;SDS011;74527;43.224;0.108;2024-01-11T10:32:35;24.08;;;14.75;;
83688;SDS011;74527;43.224;0.108;2024-01-11T10:35:01;17.90;;;12.82;;
83688;SDS011;74527;43.224;0.108;2024-01-11T10:37:31;17.13;;;13.07;;
83688;SDS011;74527;43.224;0.108;2024-01-11T10:40:04;19.98;;;12.50;;
83688;SDS011;74527;43.224;0.108;2024-01-11T10:42:34;17.67;;;12.40;;
83688;SDS011;74527;43.224;0.108;2024-01-11T10:45:03;18.90;;;12.15;;
83688;SDS011;74527;43.224;0.108;2024-01-11T10:47:30;19.30;;;12.88;;
83688;SDS011;74527;43.224;0.108;2024-01-11T10:49:57;15.10;;;11.60;;
83688;SDS011;74527;43.224;0.108;2024-01-11T10:52:27;20.10;;;11.95;;
83688;SDS011;74527;43.224;0.108;2024-01-11T10:54:54;16.55;;;11.07;;
83688;SDS011;74527;43.224;0.108;2024-01-11T10:57:21;20.05;;;12.48;;
83688;SDS011;74527;43.224;0.108;2024-01-11T10:59:48;19.25;;;11.65;;
83688;SDS011;74527;43.224;0.108;2024-01-11T11:02:14;15.95;;;11.75;;
83688;SDS011;74527;43.224;0.108;2024-01-11T11:04:42;18.60;;;12.07;;
83688;SDS011;74527;43.224;0.108;2024-01-11T11:07:09;17.48;;;11.65;;
83688;SDS011;74527;43.224;0.108;2024-01-11T11:09:36;18.92;;;12.85;;
83688;SDS011;74527;43.224;0.108;2024-01-11T11:12:03;17.67;;;12.88;;
83688;SDS011;74527;43.224;0.108;2024-01-11T11:14:30;20.35;;;13.15;;
83688;SDS011;74527;43.224;0.108;2024-01-11T11:16:57;19.23;;;13.55;;
83688;SDS011;74527;43.224;0.108;2024-01-11T11:19:24;19.38;;;13.18;;
83688;SDS011;74527;43.224;0.108;2024-01-11T11:21:50;19.55;;;13.13;;
83688;SDS011;74527;43.224;0.108;2024-01-11T11:24:16;24.60;;;14.52;;
83688;SDS011;74527;43.224;0.108;2024-01-11T11:26:43;23.13;;;15.27;;
83688;SDS011;74527;43.224;0.108;2024-01-11T11:29:09;19.48;;;12.73;;
83688;SDS011;74527;43.224;0.108;2024-01-11T11:31:43;22.98;;;13.88;;
83688;SDS011;74527;43.224;0.108;2024-01-11T11:34:13;18.13;;;12.32;;
83688;SDS011;74527;43.224;0.108;2024-01-11T11:36:40;17.73;;;11.38;;
83688;SDS011;74527;43.224;0.108;2024-01-11T11:39:13;19.45;;;11.95;;
83688;SDS011;74527;43.224;0.108;2024-01-11T11:41:39;16.75;;;11.23;;
83688;SDS011;74527;43.224;0.108;2024-01-11T11:44:07;17.38;;;10.10;;
83688;SDS011;74527;43.224;0.108;2024-01-11T11:46:33;18.85;;;12.48;;
83688;SDS011;74527;43.224;0.108;2024-01-11T11:48:59;19.05;;;13.02;;
83688;SDS011;74527;43.224;0.108;2024-01-11T11:51:26;22.50;;;12.43;;
83688;SDS011;74527;43.224;0.108;2024-01-11T11:53:53;23.52;;;13.52;;
83688;SDS011;74527;43.224;0.108;2024-01-11T11:56:20;20.67;;;13.10;;
83688;SDS011;74527;43.224;0.108;2024-01-11T11:58:46;23.23;;;15.43;;
83688;SDS011;74527;43.224;0.108;2024-01-11T12:01:13;20.10;;;12.80;;
83688;SDS011;74527;43.224;0.108;2024-01-11T12:03:43;19.30;;;12.82;;
83688;SDS011;74527;43.224;0.108;2024-01-11T12:06:16;20.42;;;12.52;;
83688;SDS011;74527;43.224;0.108;2024-01-11T12:08:42;30.80;;;14.55;;
83688;SDS011;74527;43.224;0.108;2024-01-11T12:11:08;24.90;;;13.13;;
83688;SDS011;74527;43.224;0.108;2024-01-11T12:13:35;19.10;;;12.07;;
83688;SDS011;74527;43.224;0.108;2024-01-11T12:16:01;21.08;;;12.98;;
83688;SDS011;74527;43.224;0.108;2024-01-11T12:18:27;19.38;;;12.65;;
83688;SDS011;74527;43.224;0.108;2024-01-11T12:20:53;25.10;;;13.45;;
83688;SDS011;74527;43.224;0.108;2024-01-11T12:23:19;21.08;;;13.05;;
83688;SDS011;74527;43.224;0.108;2024-01-11T12:25:45;21.67;;;13.05;;
83688;SDS011;74527;43.224;0.108;2024-01-11T12:28:12;19.95;;;13.35;;
83688;SDS011;74527;43.224;0.108;2024-01-11T12:30:38;18.85;;;13.82;;
83688;SDS011;74527;43.224;0.108;2024-01-11T12:33:04;20.75;;;13.18;;
83688;SDS011;74527;43.224;0.108;2024-01-11T12:35:31;24.35;;;12.65;;
83688;SDS011;74527;43.224;0.108;2024-01-11T12:38:03;16.90;;;11.20;;
83688;SDS011;74527;43.224;0.108;2024-01-11T12:40:34;18.92;;;12.90;;
83688;SDS011;74527;43.224;0.108;2024-01-11T12:43:00;25.05;;;13.13;;
83688;SDS011;74527;43.224;0.108;2024-01-11T12:45:26;19.20;;;12.00;;
83688;SDS011;74527;43.224;0.108;2024-01-11T12:47:53;31.70;;;14.95;;
83688;SDS011;74527;43.224;0.108;2024-01-11T12:50:21;20.00;;;12.70;;
83688;SDS011;74527;43.224;0.108;2024-01-11T12:53:03;19.05;;;12.48;;
83688;SDS011;74527;43.224;0.108;2024-01-11T12:55:29;19.23;;;11.90;;
83688;SDS011;74527;43.224;0.108;2024-01-11T12:58:08;19.27;;;12.57;;
83688;SDS011;74527;43.224;0.108;2024-01-11T13:00:35;20.40;;;12.80;;
83688;SDS011;74527;43.224;0.108;2024-01-11T13:03:02;18.92;;;12.05;;
83688;SDS011;74527;43.224;0.108;2024-01-11T13:05:28;22.15;;;12.75;;
83688;SDS011;74527;43.224;0.108;2024-01-11T13:08:00;19.50;;;13.25;;
83688;SDS011;74527;43.224;0.108;2024-01-11T13:10:27;17.88;;;11.45;;
83688;SDS011;74527;43.224;0.108;2024-01-11T13:12:53;19.92;;;11.50;;
83688;SDS011;74527;43.224;0.108;2024-01-11T13:15:20;21.90;;;12.63;;
83688;SDS011;74527;43.224;0.108;2024-01-11T13:17:46;23.90;;;12.27;;
83688;SDS011;74527;43.224;0.108;2024-01-11T13:20:13;20.23;;;12.43;;
83688;SDS011;74527;43.224;0.108;2024-01-11T13:22:40;18.52;;;11.38;;
83688;SDS011;74527;43.224;0.108;2024-01-11T13:25:06;18.02;;;11.35;;
83688;SDS011;74527;43.224;0.108;2024-01-11T13:27:32;15.88;;;11.20;;
83688;SDS011;74527;43.224;0.108;2024-01-11T13:29:58;23.58;;;12.80;;
83688;SDS011;74527;43.224;0.108;2024-01-11T13:32:24;18.92;;;11.13;;
83688;SDS011;74527;43.224;0.108;2024-01-11T13:34:50;19.52;;;11.52;;
83688;SDS011;74527;43.224;0.108;2024-01-11T13:37:19;15.13;;;10.25;;
83688;SDS011;74527;43.224;0.108;2024-01-11T13:39:46;19.48;;;11.15;;
83688;SDS011;74527;43.224;0.108;2024-01-11T13:42:13;20.92;;;11.38;;
83688;SDS011;74527;43.224;0.108;2024-01-11T13:44:39;18.52;;;12.50;;
83688;SDS011;74527;43.224;0.108;2024-01-11T13:47:05;20.40;;;10.73;;
83688;SDS011;74527;43.224;0.108;2024-01-11T13:49:31;17.90;;;11.02;;
83688;SDS011;74527;43.224;0.108;2024-01-11T13:51:58;20.10;;;10.98;;
83688;SDS011;74527;43.224;0.108;2024-01-11T13:54:24;14.88;;;11.07;;
83688;SDS011;74527;43.224;0.108;2024-01-11T13:56:50;18.70;;;11.45;;
83688;SDS011;74527;43.224;0.108;2024-01-11T13:59:17;21.05;;;12.25;;
83688;SDS011;74527;43.224;0.108;2024-01-11T14:01:43;39.08;;;19.27;;
83688;SDS011;74527;43.224;0.108;2024-01-11T14:04:09;19.48;;;12.35;;
83688;SDS011;74527;43.224;0.108;2024-01-11T14:06:35;27.25;;;12.80;;
83688;SDS011;74527;43.224;0.108;2024-01-11T14:09:02;20.63;;;12.82;;
83688;SDS011;74527;43.224;0.108;2024-01-11T14:11:29;24.47;;;14.03;;
83688;SDS011;74527;43.224;0.108;2024-01-11T14:13:55;21.52;;;12.65;;
83688;SDS011;74527;43.224;0.108;2024-01-11T14:16:21;23.00;;;13.88;;
83688;SDS011;74527;43.224;0.108;2024-01-11T14:18:48;23.35;;;13.38;;
83688;SDS011;74527;43.224;0.108;2024-01-11T14:21:14;18.15;;;12.20;;